Time,TemperatureF,DewpointF,PressureIn,WindDirection,WindDirectionDegrees,WindSpeedMPH,WindSpeedGustMPH,Humidity,HourlyPrecipIn,Conditions,Clouds,dailyrainin,SoftwareType,DateUTC
2013-04-26 00:21:00,42.6,28.4,30.25,SW,229,0.0,0.0,57,0.00,,,0.00,Wunderground v.1.15,2013-04-26 04:21:00,
2013-04-26 00:30:00,42.4,29.9,30.25,SW,229,0.0,0.0,61,0.00,,,0.00,Wunderground v.1.15,2013-04-26 04:30:00,
2013-04-26 00:35:00,42.3,28.1,30.25,SW,229,0.0,0.0,57,0.00,,,0.00,Wunderground v.1.15,2013-04-26 04:35:00,
2013-04-26 00:40:00,42.2,28.5,30.25,SW,229,0.0,0.0,58,0.00,,,0.00,Wunderground v.1.15,2013-04-26 04:40:00,
2013-04-26 00:50:00,42.0,28.7,30.25,SW,229,0.0,0.0,59,0.00,,,0.00,Wunderground v.1.15,2013-04-26 04:50:00,
2013-04-26 01:00:00,42.0,28.7,30.25,SW,229,0.0,0.0,59,0.00,,,0.00,Wunderground v.1.15,2013-04-26 05:00:00,
2013-04-26 01:10:00,42.0,27.9,30.26,SW,229,0.0,0.0,57,0.00,,,0.00,Wunderground v.1.15,2013-04-26 05:10:00,
2013-04-26 01:15:00,42.1,28.4,30.26,SW,229,0.0,0.0,58,0.00,,,0.00,Wunderground v.1.15,2013-04-26 05:15:00,
2013-04-26 01:25:00,42.0,28.7,30.26,SW,229,0.0,0.0,59,0.00,,,0.00,Wunderground v.1.15,2013-04-26 05:25:00,
2013-04-26 01:35:00,41.8,28.5,30.26,SW,229,0.0,0.0,59,0.00,,,0.00,Wunderground v.1.15,2013-04-26 05:35:00,
2013-04-26 01:40:00,41.8,27.7,30.26,SW,229,0.0,0.0,57,0.00,,,0.00,Wunderground v.1.15,2013-04-26 05:40:00,
2013-04-26 01:50:00,41.8,28.1,30.26,SW,229,0.0,0.0,58,0.00,,,0.00,Wunderground v.1.15,2013-04-26 05:50:00,
2013-04-26 01:55:00,41.8,28.9,30.26,SW,229,0.0,0.0,60,0.00,,,0.00,Wunderground v.1.15,2013-04-26 05:55:00,
2013-04-26 02:05:00,41.3,29.3,30.26,SW,229,0.0,0.0,62,0.00,,,0.00,Wunderground v.1.15,2013-04-26 06:05:00,
2013-04-26 02:10:00,41.1,28.7,30.26,SW,229,0.0,0.0,61,0.00,,,0.00,Wunderground v.1.15,2013-04-26 06:10:00,
2013-04-26 02:20:00,40.9,28.5,30.26,SW,229,0.0,0.0,61,0.00,,,0.00,Wunderground v.1.15,2013-04-26 06:20:00,
2013-04-26 02:30:00,40.6,28.6,30.26,SW,229,0.0,0.0,62,0.00,,,0.00,Wunderground v.1.15,2013-04-26 06:30:00,
2013-04-26 02:40:00,40.4,28.8,30.26,SW,229,0.0,0.0,63,0.00,,,0.00,Wunderground v.1.15,2013-04-26 06:40:00,
2013-04-26 02:50:00,40.2,28.6,30.26,SW,229,0.0,0.0,63,0.00,,,0.00,Wunderground v.1.15,2013-04-26 06:50:00,
2013-04-26 03:01:00,40.2,28.2,30.26,SW,229,0.0,0.0,62,0.00,,,0.00,Wunderground v.1.15,2013-04-26 07:01:00,
2013-04-26 03:10:00,40.0,28.0,30.26,SW,229,0.0,0.0,62,0.00,,,0.00,Wunderground v.1.15,2013-04-26 07:10:00,
2013-04-26 03:20:00,39.8,27.8,30.27,SW,229,0.0,0.0,62,0.00,,,0.00,Wunderground v.1.15,2013-04-26 07:20:00,
2013-04-26 03:30:00,39.7,27.7,30.27,SW,229,0.0,0.0,62,0.00,,,0.00,Wunderground v.1.15,2013-04-26 07:30:00,
2013-04-26 03:40:00,39.5,27.5,30.27,SW,229,0.0,0.0,62,0.00,,,0.00,Wunderground v.1.15,2013-04-26 07:40:00,
2013-04-26 09:25:00,53.7,32.3,30.37,East,95,2.0,2.0,44,0.00,,,0.00,Wunderground v.1.15,2013-04-26 13:25:00,
2013-04-26 09:35:00,53.9,31.9,30.37,East,90,2.0,3.0,43,0.00,,,0.00,Wunderground v.1.15,2013-04-26 13:35:00,
2013-04-26 09:45:00,53.7,32.8,30.37,SSW,205,3.0,3.0,45,0.00,,,0.00,Wunderground v.1.15,2013-04-26 13:45:00,
2013-04-26 09:50:00,54.5,32.4,30.37,East,84,2.0,3.0,43,0.00,,,0.00,Wunderground v.1.15,2013-04-26 13:50:00,
2013-04-26 10:00:00,54.2,32.2,30.37,ESE,122,2.0,2.0,43,0.00,,,0.00,Wunderground v.1.15,2013-04-26 14:00:00,
2013-04-26 10:10:00,55.4,32.7,30.37,East,98,1.0,6.0,42,0.00,,,0.00,Wunderground v.1.15,2013-04-26 14:10:00,
2013-04-26 10:15:00,55.2,32.5,30.37,East,94,2.0,6.0,42,0.00,,,0.00,Wunderground v.1.15,2013-04-26 14:15:00,
2013-04-26 10:25:00,55.9,33.7,30.37,ESE,109,1.0,4.0,43,0.00,,,0.00,Wunderground v.1.15,2013-04-26 14:25:00,
2013-04-26 10:35:00,56.3,33.5,30.37,East,87,2.0,5.0,42,0.00,,,0.00,Wunderground v.1.15,2013-04-26 14:35:00,
2013-04-26 10:45:00,56.5,34.8,30.37,East,82,2.0,4.0,44,0.00,,,0.00,Wunderground v.1.15,2013-04-26 14:45:00,
2013-04-26 10:55:00,55.9,33.7,30.37,SE,142,3.0,3.0,43,0.00,,,0.00,Wunderground v.1.15,2013-04-26 14:55:00,
2013-04-26 11:05:00,56.3,33.5,30.37,East,87,3.0,3.0,42,0.00,,,0.00,Wunderground v.1.15,2013-04-26 15:05:00,
2013-04-26 11:15:00,56.9,35.2,30.37,East,88,2.0,7.0,44,0.00,,,0.00,Wunderground v.1.15,2013-04-26 15:15:00,
2013-04-26 11:25:00,57.1,34.8,30.37,ENE,78,3.0,3.0,43,0.00,,,0.00,Wunderground v.1.15,2013-04-26 15:25:00,
2013-04-26 11:35:00,57.7,33.5,30.37,East,101,2.0,4.0,40,0.00,,,0.00,Wunderground v.1.15,2013-04-26 15:35:00,
2013-04-26 11:40:00,58.4,35.4,30.36,East,91,2.0,7.0,42,0.00,,,0.00,Wunderground v.1.15,2013-04-26 15:40:00,
2013-04-26 11:50:00,58.2,36.4,30.36,East,91,3.0,6.0,44,0.00,,,0.00,Wunderground v.1.15,2013-04-26 15:50:00,
2013-04-26 12:00:00,58.4,37.1,30.36,ESE,109,3.0,3.0,45,0.00,,,0.00,Wunderground v.1.15,2013-04-26 16:00:00,
2013-04-26 12:05:00,58.7,34.4,30.36,SE,133,2.0,3.0,40,0.00,,,0.00,Wunderground v.1.15,2013-04-26 16:05:00,
2013-04-26 13:20:00,60.0,36.2,30.33,East,83,2.0,2.0,41,0.00,,,0.00,Wunderground v.1.15,2013-04-26 17:20:00,
2013-04-26 13:30:00,59.0,33.4,30.33,East,80,3.0,3.0,38,0.00,,,0.00,Wunderground v.1.15,2013-04-26 17:30:00,
2013-04-26 13:40:00,58.7,33.8,30.33,East,92,1.0,1.0,39,0.00,,,0.00,Wunderground v.1.15,2013-04-26 17:40:00,
2013-04-26 13:50:00,57.8,33.6,30.33,East,84,1.0,4.0,40,0.00,,,0.00,Wunderground v.1.15,2013-04-26 17:50:00,
2013-04-26 14:00:00,58.0,33.8,30.33,East,91,1.0,1.0,40,0.00,,,0.00,Wunderground v.1.15,2013-04-26 18:00:00,
2013-04-26 14:10:00,59.8,34.1,30.33,ENE,60,1.0,1.0,38,0.00,,,0.00,Wunderground v.1.15,2013-04-26 18:10:00,
2013-04-26 14:20:00,59.6,33.9,30.32,ESE,121,1.0,1.0,38,0.00,,,0.00,Wunderground v.1.15,2013-04-26 18:20:00,
2013-04-26 14:30:00,58.3,34.1,30.33,ESE,114,2.0,2.0,40,0.00,,,0.00,Wunderground v.1.15,2013-04-26 18:30:00,
2013-04-26 14:40:00,57.4,34.5,30.33,SSE,148,1.0,1.0,42,0.00,,,0.00,Wunderground v.1.15,2013-04-26 18:40:00,
2013-04-26 14:45:00,57.5,34.6,30.33,ENE,72,1.0,1.0,42,0.00,,,0.00,Wunderground v.1.15,2013-04-26 18:45:00,
2013-04-26 14:55:00,57.9,36.1,30.33,East,88,1.0,2.0,44,0.00,,,0.00,Wunderground v.1.15,2013-04-26 18:55:00,
2013-04-26 15:05:00,57.3,34.4,30.33,East,96,2.0,5.0,42,0.00,,,0.00,Wunderground v.1.15,2013-04-26 19:05:00,
2013-04-26 15:10:00,57.1,34.8,30.33,East,96,1.0,1.0,43,0.00,,,0.00,Wunderground v.1.15,2013-04-26 19:10:00,
2013-04-26 15:20:00,57.5,35.7,30.33,East,90,1.0,2.0,44,0.00,,,0.00,Wunderground v.1.15,2013-04-26 19:20:00,
2013-04-26 15:30:00,57.7,35.9,30.33,East,80,2.0,3.0,44,0.00,,,0.00,Wunderground v.1.15,2013-04-26 19:30:00,
2013-04-26 15:40:00,57.3,35.6,30.33,NE,54,1.0,1.0,44,0.00,,,0.00,Wunderground v.1.15,2013-04-26 19:40:00,
2013-04-26 15:50:00,56.9,36.9,30.33,East,95,0.0,1.0,47,0.00,,,0.00,Wunderground v.1.15,2013-04-26 19:50:00,
2013-04-26 16:00:00,56.6,35.5,30.33,ESE,108,1.0,1.0,45,0.00,,,0.00,Wunderground v.1.15,2013-04-26 20:00:00,
2013-04-26 16:10:00,56.5,36.0,30.33,ESE,111,1.0,1.0,46,0.00,,,0.00,Wunderground v.1.15,2013-04-26 20:10:00,
2013-04-26 16:20:00,56.6,36.0,30.33,East,84,1.0,1.0,46,0.00,,,0.00,Wunderground v.1.15,2013-04-26 20:20:00,
2013-04-26 16:30:00,56.6,36.6,30.33,ESE,106,1.0,1.0,47,0.00,,,0.00,Wunderground v.1.15,2013-04-26 20:30:00,
2013-04-26 16:40:00,56.3,36.3,30.33,ESE,105,2.0,2.0,47,0.00,,,0.00,Wunderground v.1.15,2013-04-26 20:40:00,
2013-04-26 16:50:00,56.3,36.3,30.33,ESE,109,0.0,0.0,47,0.00,,,0.00,Wunderground v.1.15,2013-04-26 20:50:00,
2013-04-26 17:00:00,55.9,35.9,30.34,ESE,111,1.0,5.0,47,0.00,,,0.00,Wunderground v.1.15,2013-04-26 21:00:00,
2013-04-26 17:10:00,55.8,35.9,30.34,ESE,105,1.0,1.0,47,0.00,,,0.00,Wunderground v.1.15,2013-04-26 21:10:00,
2013-04-26 17:20:00,56.0,36.0,30.34,East,98,1.0,1.0,47,0.00,,,0.00,Wunderground v.1.15,2013-04-26 21:20:00,
2013-04-26 17:25:00,56.2,36.2,30.34,East,90,1.0,1.0,47,0.00,,,0.00,Wunderground v.1.15,2013-04-26 21:25:00,
2013-04-26 17:35:00,56.0,36.0,30.34,ESE,102,1.0,2.0,47,0.00,,,0.00,Wunderground v.1.15,2013-04-26 21:35:00,
2013-04-26 17:45:00,55.5,35.6,30.34,South,171,1.0,4.0,47,0.00,,,0.00,Wunderground v.1.15,2013-04-26 21:45:00,
2013-04-26 17:50:00,55.2,35.3,30.34,East,88,1.0,1.0,47,0.00,,,0.00,Wunderground v.1.15,2013-04-26 21:50:00,
2013-04-26 18:00:00,55.1,35.7,30.34,ESE,122,1.0,1.0,48,0.00,,,0.00,Wunderground v.1.15,2013-04-26 22:00:00,
2013-04-26 18:10:00,54.8,36.0,30.34,East,90,1.0,1.0,49,0.00,,,0.00,Wunderground v.1.15,2013-04-26 22:10:00,
2013-04-26 18:20:00,54.6,35.3,30.35,East,98,1.0,1.0,48,0.00,,,0.00,Wunderground v.1.15,2013-04-26 22:20:00,
2013-04-26 18:30:00,54.3,35.5,30.35,ESE,114,0.0,1.0,49,0.00,,,0.00,Wunderground v.1.15,2013-04-26 22:30:00,
2013-04-26 18:35:00,54.1,35.9,30.35,NE,40,1.0,1.0,50,0.00,,,0.00,Wunderground v.1.15,2013-04-26 22:35:00,
2013-04-26 18:40:00,53.9,35.2,30.35,ENE,65,1.0,2.0,49,0.00,,,0.00,Wunderground v.1.15,2013-04-26 22:40:00,
2013-04-26 18:50:00,53.3,34.6,30.36,East,96,1.0,1.0,49,0.00,,,0.00,Wunderground v.1.15,2013-04-26 22:50:00,
2013-04-26 19:00:00,52.9,34.8,30.36,East,95,0.0,0.0,50,0.00,,,0.00,Wunderground v.1.15,2013-04-26 23:00:00,
2013-04-26 19:10:00,52.4,34.3,30.36,East,80,0.0,0.0,50,0.00,,,0.00,Wunderground v.1.15,2013-04-26 23:10:00,
2013-04-26 19:15:00,52.1,35.0,30.36,East,79,0.0,0.0,52,0.00,,,0.00,Wunderground v.1.15,2013-04-26 23:15:00,
2013-04-26 19:25:00,51.8,34.2,30.36,East,80,0.0,0.0,51,0.00,,,0.00,Wunderground v.1.15,2013-04-26 23:25:00,
2013-04-26 19:35:00,51.5,34.4,30.37,East,80,0.0,0.0,52,0.00,,,0.00,Wunderground v.1.15,2013-04-26 23:35:00,
2013-04-26 19:45:00,51.2,34.6,30.38,East,80,0.0,0.0,53,0.00,,,0.00,Wunderground v.1.15,2013-04-26 23:45:00,
2013-04-26 20:10:00,50.2,34.2,30.38,East,80,0.0,0.0,54,0.00,,,0.00,Wunderground v.1.15,2013-04-27 00:10:00,
2013-04-26 20:20:00,50.1,33.6,30.38,East,80,0.0,0.0,53,0.00,,,0.00,Wunderground v.1.15,2013-04-27 00:20:00,
2013-04-26 20:30:00,49.8,34.3,30.38,East,79,0.0,0.0,55,0.00,,,0.00,Wunderground v.1.15,2013-04-27 00:30:00,
2013-04-26 20:35:00,49.6,35.0,30.38,East,79,0.0,0.0,57,0.00,,,0.00,Wunderground v.1.15,2013-04-27 00:35:00,
2013-04-26 20:45:00,49.0,34.4,30.39,East,80,0.0,0.0,57,0.00,,,0.00,Wunderground v.1.15,2013-04-27 00:45:00,
2013-04-26 20:55:00,48.5,35.2,30.39,East,80,0.0,0.0,60,0.00,,,0.00,Wunderground v.1.15,2013-04-27 00:55:00,
2013-04-26 21:05:00,48.0,35.2,30.39,East,79,0.0,0.0,61,0.00,,,0.00,Wunderground v.1.15,2013-04-27 01:05:00,
2013-04-26 21:10:00,47.5,34.7,30.39,East,79,0.0,0.0,61,0.00,,,0.00,Wunderground v.1.15,2013-04-27 01:10:00,
2013-04-26 21:20:00,46.8,34.0,30.39,East,80,0.0,0.0,61,0.00,,,0.00,Wunderground v.1.15,2013-04-27 01:20:00,
2013-04-26 21:25:00,46.4,34.5,30.39,East,80,0.0,0.0,63,0.00,,,0.00,Wunderground v.1.15,2013-04-27 01:25:00,
2013-04-26 21:35:00,45.7,33.4,30.39,East,80,0.0,0.0,62,0.00,,,0.00,Wunderground v.1.15,2013-04-27 01:35:00,
2013-04-26 21:45:00,45.2,33.3,30.39,East,80,0.0,0.0,63,0.00,,,0.00,Wunderground v.1.15,2013-04-27 01:45:00,
2013-04-26 21:55:00,44.7,34.4,30.39,East,79,0.0,0.0,67,0.00,,,0.00,Wunderground v.1.15,2013-04-27 01:55:00,
2013-04-26 22:05:00,44.0,33.4,30.39,East,80,0.0,0.0,66,0.00,,,0.00,Wunderground v.1.15,2013-04-27 02:05:00,
2013-04-26 22:15:00,43.5,33.6,30.38,East,79,0.0,0.0,68,0.00,,,0.00,Wunderground v.1.15,2013-04-27 02:15:00,
2013-04-26 22:25:00,42.9,32.7,30.39,East,80,0.0,0.0,67,0.00,,,0.00,Wunderground v.1.15,2013-04-27 02:25:00,
2013-04-26 22:35:00,42.4,33.3,30.39,East,80,0.0,0.0,70,0.00,,,0.00,Wunderground v.1.15,2013-04-27 02:35:00,
2013-04-26 22:45:00,42.3,33.2,30.39,East,80,0.0,0.0,70,0.00,,,0.00,Wunderground v.1.15,2013-04-27 02:45:00,
2013-04-26 22:50:00,42.2,33.1,30.39,East,80,0.0,0.0,70,0.00,,,0.00,Wunderground v.1.15,2013-04-27 02:50:00,
2013-04-26 23:00:00,41.9,33.2,30.39,East,80,0.0,0.0,71,0.00,,,0.00,Wunderground v.1.15,2013-04-27 03:00:00,
2013-04-26 23:10:00,41.6,33.2,30.39,East,80,0.0,0.0,72,0.00,,,0.00,Wunderground v.1.15,2013-04-27 03:10:00,
2013-04-26 23:15:00,41.4,33.0,30.39,East,80,0.0,0.0,72,0.00,,,0.00,Wunderground v.1.15,2013-04-27 03:15:00,
2013-04-26 23:25:00,41.1,33.4,30.39,East,80,0.0,0.0,74,0.00,,,0.00,Wunderground v.1.15,2013-04-27 03:25:00,
2013-04-26 23:35:00,40.7,33.1,30.39,East,80,0.0,0.0,74,0.00,,,0.00,Wunderground v.1.15,2013-04-27 03:35:00,
2013-04-26 23:45:00,40.2,33.2,30.39,East,80,0.0,0.0,76,0.00,,,0.00,Wunderground v.1.15,2013-04-27 03:45:00,
2013-04-26 23:55:00,39.8,32.8,30.39,East,80,0.0,0.0,76,0.00,,,0.00,Wunderground v.1.15,2013-04-27 03:55:00,